createdAt,value
2016-03-19T00:00:07.029Z,0
2016-03-19T00:00:20.282Z,0
2016-03-19T00:00:33.736Z,0
2016-03-19T00:00:46.954Z,0
2016-03-19T00:01:53.520Z,0
2016-03-19T00:02:07.051Z,0
2016-03-19T00:02:20.272Z,0
2016-03-19T00:09:31.775Z,0
2016-03-19T00:09:44.978Z,0
2016-03-19T00:09:58.416Z,0
2016-03-19T00:11:11.716Z,0
2016-03-19T00:11:25.061Z,0
2016-03-19T00:12:36.424Z,0
2016-03-19T00:12:49.768Z,0
2016-03-19T00:13:03.158Z,0
2016-03-19T00:13:16.442Z,0
2016-03-19T00:13:29.692Z,0
2016-03-19T00:13:43.177Z,0
2016-03-19T00:13:56.505Z,0
2016-03-19T00:14:09.739Z,0
2016-03-19T00:14:23.069Z,0
2016-03-19T00:14:37.007Z,0
2016-03-19T00:14:50.241Z,0
2016-03-19T00:15:03.601Z,0
2016-03-19T00:15:17.041Z,0
2016-03-19T00:16:26.404Z,0
2016-03-19T00:16:39.716Z,0
2016-03-19T00:16:53.091Z,0
2016-03-19T00:17:06.513Z,0
2016-03-19T00:17:19.812Z,0
2016-03-19T00:17:33.140Z,0
2016-03-19T00:18:44.410Z,0
2016-03-19T00:18:57.753Z,0
2016-03-19T00:19:11.144Z,0
2016-03-19T00:19:24.537Z,0
2016-03-19T00:19:37.771Z,0
2016-03-19T00:19:51.068Z,0
2016-03-19T00:20:04.537Z,0
2016-03-19T00:20:17.790Z,0
2016-03-19T00:20:31.196Z,0
2016-03-19T00:20:44.977Z,0
2016-03-19T00:20:58.290Z,0
2016-03-19T00:21:11.743Z,0
2016-03-19T00:21:25.635Z,0
2016-03-19T00:21:39.057Z,0
2016-03-19T00:21:52.713Z,0
2016-03-19T00:22:06.151Z,0
2016-03-19T00:22:19.404Z,0
2016-03-19T00:22:32.779Z,0
2016-03-19T00:22:46.185Z,0
2016-03-19T00:22:59.529Z,0
2016-03-19T00:23:12.779Z,0
2016-03-19T00:23:26.376Z,0
2016-03-19T00:23:40.423Z,0
2016-03-19T00:23:53.735Z,0
2016-03-19T00:24:07.001Z,0
2016-03-19T00:24:20.394Z,0
2016-03-19T00:24:33.847Z,0
2016-03-19T00:24:47.535Z,0
2016-03-19T00:25:00.972Z,0
2016-03-19T00:25:14.316Z,0
2016-03-19T00:25:27.521Z,0
2016-03-19T00:25:40.959Z,0
2016-03-19T00:25:54.131Z,0
2016-03-19T00:26:07.490Z,0
2016-03-19T00:26:20.821Z,0
2016-03-19T00:26:34.024Z,0
2016-03-19T00:26:47.977Z,0
2016-03-19T00:27:01.368Z,0
2016-03-19T00:27:15.196Z,0
2016-03-19T00:27:29.215Z,0
2016-03-19T00:28:36.420Z,0
2016-03-19T00:28:49.639Z,0
2016-03-19T00:29:03.061Z,0
2016-03-19T00:29:16.467Z,0
2016-03-19T00:29:29.704Z,0
2016-03-19T00:29:43.220Z,0
2016-03-19T00:29:57.376Z,0
2016-03-19T00:30:10.626Z,0
2016-03-19T00:30:24.082Z,0
2016-03-19T00:30:37.488Z,0
2016-03-19T00:30:50.770Z,0
2016-03-19T00:31:04.317Z,0
2016-03-19T00:31:17.788Z,0
2016-03-19T00:31:30.960Z,0
2016-03-19T00:32:41.728Z,0
2016-03-19T00:32:55.072Z,0
2016-03-19T00:40:06.591Z,0
2016-03-19T00:40:19.797Z,0
2016-03-19T00:40:33.203Z,0
2016-03-19T00:41:46.767Z,0
2016-03-19T00:42:00.049Z,0
2016-03-19T00:42:13.517Z,0
2016-03-19T00:43:24.444Z,0
2016-03-19T00:43:37.647Z,0
2016-03-19T00:43:51.022Z,0
2016-03-19T00:44:04.413Z,0
2016-03-19T00:44:17.741Z,0
2016-03-19T00:44:31.058Z,0
2016-03-19T00:44:44.433Z,0
2016-03-19T00:44:57.698Z,0
2016-03-19T00:45:11.120Z,0
2016-03-19T00:45:24.404Z,0
2016-03-19T00:45:37.686Z,0
2016-03-19T00:45:51.108Z,0
2016-03-19T00:46:04.420Z,0
2016-03-19T00:47:14.328Z,0
2016-03-19T00:47:27.738Z,0
2016-03-19T00:47:41.050Z,0
2016-03-19T00:47:54.316Z,0
2016-03-19T00:48:07.691Z,0
2016-03-19T00:49:18.896Z,0
2016-03-19T00:49:32.321Z,0
2016-03-19T00:49:45.649Z,0
2016-03-19T00:49:58.883Z,0
2016-03-19T00:50:12.289Z,0
2016-03-19T00:50:25.574Z,0
2016-03-19T00:50:38.792Z,0
2016-03-19T00:50:52.167Z,0
2016-03-19T00:51:05.496Z,0
2016-03-19T00:51:18.746Z,0
2016-03-19T00:51:32.280Z,0
2016-03-19T00:51:45.686Z,0
2016-03-19T00:51:58.905Z,0
2016-03-19T00:52:12.264Z,0
2016-03-19T00:52:25.813Z,0
2016-03-19T00:52:39.157Z,0
2016-03-19T00:52:52.391Z,0
2016-03-19T00:53:05.672Z,0
2016-03-19T00:53:19.110Z,0
2016-03-19T00:53:32.410Z,0
2016-03-19T00:53:45.754Z,0
2016-03-19T00:53:59.144Z,0
2016-03-19T00:54:12.379Z,0
2016-03-19T00:54:25.741Z,0
2016-03-19T00:54:39.241Z,0
2016-03-19T00:54:52.616Z,0
2016-03-19T00:55:06.007Z,0
2016-03-19T00:55:19.225Z,0
2016-03-19T00:55:32.509Z,0
2016-03-19T00:55:45.993Z,0
2016-03-19T00:55:59.618Z,0
2016-03-19T00:56:13.649Z,0
2016-03-19T00:56:27.496Z,0
2016-03-19T00:56:40.824Z,0
2016-03-19T00:56:54.230Z,0
2016-03-19T00:57:08.324Z,0
2016-03-19T00:58:14.405Z,0
2016-03-19T00:58:27.673Z,0
2016-03-19T00:58:41.188Z,0
2016-03-19T00:58:54.860Z,0
2016-03-19T00:59:08.220Z,0
2016-03-19T00:59:21.629Z,0
2016-03-19T00:59:34.926Z,0
2016-03-19T00:59:48.238Z,0
2016-03-19T01:00:01.629Z,0
2016-03-19T01:00:15.207Z,0
2016-03-19T01:00:29.194Z,0
2016-03-19T01:00:42.585Z,0
2016-03-19T01:00:56.007Z,0
2016-03-19T01:01:09.288Z,0
2016-03-19T01:01:22.712Z,0
2016-03-19T01:01:39.400Z,0
2016-03-19T01:01:52.915Z,0
2016-03-19T01:02:06.181Z,0
2016-03-19T01:03:16.621Z,0
2016-03-19T01:03:30.076Z,0
2016-03-19T01:03:43.639Z,0
2016-03-19T01:10:54.475Z,0
2016-03-19T01:11:07.678Z,0
2016-03-19T01:11:21.022Z,0
2016-03-19T01:14:05.443Z,0
2016-03-19T01:14:18.865Z,0
2016-03-19T01:14:32.317Z,0
2016-03-19T01:14:45.848Z,0
2016-03-19T01:14:59.458Z,0
2016-03-19T01:15:13.442Z,0
2016-03-19T01:15:26.880Z,0
2016-03-19T01:15:40.676Z,0
2016-03-19T01:15:54.161Z,0
2016-03-19T01:16:07.645Z,0
2016-03-19T01:16:21.005Z,0
2016-03-19T01:16:34.769Z,0
2016-03-19T01:16:48.269Z,0
2016-03-19T01:17:01.644Z,0
2016-03-19T01:17:15.050Z,0
2016-03-19T01:17:28.565Z,0
2016-03-19T01:17:41.924Z,0
2016-03-19T01:17:55.346Z,0
2016-03-19T01:18:09.284Z,0
2016-03-19T01:18:22.691Z,0
2016-03-19T01:18:36.113Z,0
2016-03-19T01:18:49.675Z,0
2016-03-19T01:19:03.066Z,0
2016-03-19T01:19:16.535Z,0
2016-03-19T01:19:30.646Z,0
2016-03-19T01:19:43.974Z,0
2016-03-19T01:19:57.709Z,0
2016-03-19T01:20:11.662Z,0
2016-03-19T01:20:27.960Z,0
2016-03-19T01:20:41.319Z,0
2016-03-19T01:20:54.850Z,0
2016-03-19T01:21:08.178Z,0
2016-03-19T01:21:21.759Z,0
2016-03-19T01:21:35.259Z,0
2016-03-19T01:21:48.618Z,0
2016-03-19T01:22:02.040Z,0
2016-03-19T01:22:15.618Z,0
2016-03-19T01:22:28.917Z,0
2016-03-19T01:22:42.339Z,0
2016-03-19T01:22:55.854Z,0
2016-03-19T01:23:09.261Z,0
2016-03-19T01:23:22.700Z,0
2016-03-19T01:23:36.169Z,0
2016-03-19T01:23:49.544Z,0
2016-03-19T01:24:03.138Z,0
2016-03-19T01:24:16.622Z,0
2016-03-19T01:24:30.015Z,0
2016-03-19T01:24:43.452Z,0
2016-03-19T01:24:57.046Z,0
2016-03-19T01:25:10.405Z,0
2016-03-19T01:25:23.814Z,0
2016-03-19T01:25:37.314Z,0
2016-03-19T01:25:50.705Z,0
2016-03-19T01:26:04.049Z,0
2016-03-19T01:26:17.533Z,0
2016-03-19T01:26:30.863Z,0
2016-03-19T01:26:44.520Z,0
2016-03-19T01:26:57.957Z,0
2016-03-19T01:27:12.066Z,0
2016-03-19T01:27:25.584Z,0
2016-03-19T01:27:38.975Z,0
2016-03-19T01:27:52.303Z,0
2016-03-19T01:28:05.818Z,0
2016-03-19T01:28:19.225Z,0
2016-03-19T01:28:32.556Z,0
2016-03-19T01:28:46.056Z,0
2016-03-19T01:28:59.493Z,0
2016-03-19T01:29:12.931Z,0
2016-03-19T01:29:26.996Z,0
2016-03-19T01:29:40.653Z,0
2016-03-19T01:29:54.137Z,0
2016-03-19T01:30:07.481Z,0
2016-03-19T01:30:21.028Z,0
2016-03-19T01:30:34.921Z,0
2016-03-19T01:30:48.452Z,0
2016-03-19T01:31:01.874Z,0
2016-03-19T01:31:15.515Z,0
2016-03-19T01:31:28.829Z,0
2016-03-19T01:31:42.861Z,0
2016-03-19T01:31:57.158Z,0
2016-03-19T01:45:03.004Z,0
2016-03-19T01:45:16.426Z,0
2016-03-19T01:45:30.055Z,0
2016-03-19T01:45:43.430Z,0
2016-03-19T01:45:56.774Z,0
2016-03-19T01:46:10.321Z,0
2016-03-19T01:46:23.682Z,0
2016-03-19T01:46:37.057Z,0
2016-03-19T01:46:50.541Z,0
2016-03-19T01:47:03.932Z,0
2016-03-19T01:47:17.276Z,0
2016-03-19T01:47:30.685Z,0
2016-03-19T01:47:44.263Z,0
2016-03-19T01:47:57.685Z,0
2016-03-19T01:48:11.044Z,0
2016-03-19T01:48:24.672Z,0
2016-03-19T01:48:38.141Z,0
2016-03-19T01:48:51.563Z,0
2016-03-19T01:49:05.047Z,0
2016-03-19T01:49:19.110Z,0
2016-03-19T01:49:32.409Z,0
2016-03-19T01:49:45.893Z,0
2016-03-19T01:49:59.424Z,0
2016-03-19T01:50:12.815Z,0
2016-03-19T01:50:26.396Z,0
2016-03-19T01:50:39.740Z,0
2016-03-19T01:50:53.162Z,0
2016-03-19T01:51:06.662Z,0
2016-03-19T01:51:19.959Z,0
2016-03-19T01:51:33.336Z,0
2016-03-19T01:51:46.851Z,0
2016-03-19T01:52:00.164Z,0
2016-03-19T01:52:13.632Z,0
2016-03-19T01:52:27.183Z,0
2016-03-19T01:52:41.277Z,0
2016-03-19T01:52:54.699Z,0
2016-03-19T01:53:08.246Z,0
2016-03-19T01:53:21.715Z,0
2016-03-19T01:53:35.748Z,0
2016-03-19T01:53:49.279Z,0
2016-03-19T01:54:02.701Z,0
2016-03-19T01:54:16.138Z,0
2016-03-19T01:54:30.157Z,0
2016-03-19T01:54:43.548Z,0
2016-03-19T01:54:56.891Z,0
2016-03-19T01:55:10.532Z,0
2016-03-19T01:55:23.956Z,0
2016-03-19T01:55:37.268Z,0
2016-03-19T01:55:50.800Z,0
2016-03-19T01:56:04.675Z,0
2016-03-19T01:56:18.081Z,0
2016-03-19T01:56:31.803Z,0
2016-03-19T01:56:45.100Z,0
2016-03-19T01:56:59.100Z,0
2016-03-19T01:57:12.709Z,0
2016-03-19T01:57:26.040Z,0
2016-03-19T01:57:39.493Z,0
2016-03-19T01:57:53.149Z,0
2016-03-19T01:58:06.556Z,0
2016-03-19T01:58:19.993Z,0
2016-03-19T01:58:33.542Z,0
2016-03-19T01:58:46.980Z,0
2016-03-19T01:59:00.355Z,0
2016-03-19T01:59:13.917Z,0
2016-03-19T01:59:27.234Z,0
2016-03-19T01:59:40.687Z,0
2016-03-19T01:59:54.187Z,0
2016-03-19T02:00:07.624Z,0
2016-03-19T02:00:20.952Z,0
2016-03-19T02:00:34.454Z,0
2016-03-19T02:00:47.829Z,0
2016-03-19T02:01:01.157Z,0
2016-03-19T02:01:14.673Z,0
2016-03-19T02:01:28.067Z,0
2016-03-19T02:01:42.770Z,0
2016-03-19T02:01:56.332Z,0
2016-03-19T02:03:03.037Z,0
2016-03-19T02:03:16.506Z,0
2016-03-19T02:03:29.900Z,0
2016-03-19T02:03:43.400Z,0
2016-03-19T02:15:50.120Z,0
2016-03-19T02:16:03.620Z,0
2016-03-19T02:16:17.027Z,0
2016-03-19T02:16:30.372Z,0
2016-03-19T02:16:43.872Z,0
2016-03-19T02:16:57.279Z,0
2016-03-19T02:17:10.622Z,0
2016-03-19T02:17:23.984Z,0
2016-03-19T02:17:37.468Z,0
2016-03-19T02:17:50.859Z,0
2016-03-19T02:18:04.202Z,0
2016-03-19T02:18:17.718Z,0
2016-03-19T02:18:31.143Z,0
2016-03-19T02:18:44.690Z,0
2016-03-19T02:18:58.237Z,0
2016-03-19T02:19:11.705Z,0
2016-03-19T02:19:25.037Z,0
2016-03-19T02:19:38.568Z,0
2016-03-19T02:19:51.880Z,0
2016-03-19T02:20:05.443Z,0
2016-03-19T02:20:18.880Z,0
2016-03-19T02:20:32.257Z,0
2016-03-19T02:20:45.757Z,0
2016-03-19T02:20:59.226Z,0
2016-03-19T02:21:13.039Z,0
2016-03-19T02:21:26.557Z,0
2016-03-19T02:21:40.073Z,0
2016-03-19T02:21:53.417Z,0
2016-03-19T02:22:06.792Z,0
2016-03-19T02:22:20.307Z,0
2016-03-19T02:22:33.591Z,0
2016-03-19T02:22:47.045Z,0
2016-03-19T02:23:00.466Z,0
2016-03-19T02:23:13.920Z,0
2016-03-19T02:23:27.360Z,0
2016-03-19T02:23:40.891Z,0
2016-03-19T02:23:54.266Z,0
2016-03-19T02:24:07.704Z,0
2016-03-19T02:24:21.235Z,0
2016-03-19T02:24:34.612Z,0
2016-03-19T02:24:48.034Z,0
2016-03-19T02:25:01.503Z,0
2016-03-19T02:25:14.893Z,0
2016-03-19T02:25:28.224Z,0
2016-03-19T02:25:41.662Z,0
2016-03-19T02:25:55.115Z,0
2016-03-19T02:26:08.599Z,0
2016-03-19T02:26:21.990Z,0
2016-03-19T02:26:35.446Z,0
2016-03-19T02:26:49.743Z,0
2016-03-19T02:27:03.118Z,0
2016-03-19T02:27:16.665Z,0
2016-03-19T02:27:30.277Z,0
2016-03-19T02:27:43.637Z,0
2016-03-19T02:27:56.965Z,0
2016-03-19T02:28:10.480Z,0
2016-03-19T02:28:23.873Z,0
2016-03-19T02:28:37.326Z,0
2016-03-19T02:28:50.654Z,0
2016-03-19T02:29:04.170Z,0
2016-03-19T02:29:17.670Z,0
2016-03-19T02:29:31.016Z,0
2016-03-19T02:29:44.500Z,0
2016-03-19T02:29:57.938Z,0
2016-03-19T02:30:11.297Z,0
2016-03-19T02:30:24.722Z,0
2016-03-19T02:30:38.222Z,0
2016-03-19T02:30:51.519Z,0
2016-03-19T02:31:05.534Z,0
2016-03-19T02:31:18.956Z,0
2016-03-19T02:31:32.490Z,0
2016-03-19T02:31:47.178Z,0
2016-03-19T02:32:00.600Z,0
2016-03-19T02:32:14.100Z,0
2016-03-19T02:32:27.540Z,0
2016-03-19T02:32:40.868Z,0
2016-03-19T02:33:49.981Z,0
2016-03-19T02:34:03.809Z,0
2016-03-19T02:34:17.137Z,0
2016-03-19T02:34:30.640Z,0
2016-03-19T02:34:44.046Z,0
2016-03-19T02:46:51.688Z,0
2016-03-19T02:47:05.047Z,0
2016-03-19T02:47:18.438Z,0
2016-03-19T02:47:31.955Z,0
2016-03-19T02:47:45.362Z,0
2016-03-19T02:47:58.893Z,0
2016-03-19T02:48:12.549Z,0
2016-03-19T02:48:25.958Z,0
2016-03-19T02:48:39.818Z,0
2016-03-19T02:48:53.349Z,0
2016-03-19T02:49:06.771Z,0
2016-03-19T02:49:20.458Z,0
2016-03-19T02:49:33.774Z,0
2016-03-19T02:49:47.180Z,0
2016-03-19T02:50:01.258Z,0
2016-03-19T02:50:14.696Z,0
2016-03-19T02:50:28.042Z,0
2016-03-19T02:50:41.652Z,0
2016-03-19T02:50:55.167Z,0
2016-03-19T02:51:08.480Z,0
2016-03-19T02:51:22.152Z,0
2016-03-19T02:51:35.607Z,0
2016-03-19T02:51:48.966Z,0
2016-03-19T02:52:02.451Z,0
2016-03-19T02:52:15.904Z,0
2016-03-19T02:52:29.312Z,0
2016-03-19T02:52:42.890Z,0
2016-03-19T02:52:56.281Z,0
2016-03-19T02:53:09.562Z,0
2016-03-19T02:53:23.096Z,0
2016-03-19T02:53:36.518Z,0
2016-03-19T02:53:49.878Z,0
2016-03-19T02:54:03.299Z,0
2016-03-19T02:54:16.862Z,0
2016-03-19T02:54:30.193Z,0
2016-03-19T02:54:43.631Z,0
2016-03-19T02:54:57.256Z,0
2016-03-19T02:55:10.646Z,0
2016-03-19T02:55:24.055Z,0
2016-03-19T02:55:37.571Z,0
2016-03-19T02:55:51.087Z,0
2016-03-19T02:56:04.399Z,0
2016-03-19T02:56:17.821Z,0
2016-03-19T02:56:31.323Z,0
2016-03-19T02:56:44.729Z,0
2016-03-19T02:56:58.120Z,0
2016-03-19T02:57:11.620Z,0
2016-03-19T02:57:25.139Z,0
2016-03-19T02:57:38.451Z,0
2016-03-19T02:57:52.576Z,0
2016-03-19T02:58:05.967Z,0
2016-03-19T02:58:19.435Z,0
2016-03-19T02:58:32.985Z,0
2016-03-19T02:58:46.298Z,0
2016-03-19T02:59:00.220Z,0
2016-03-19T02:59:14.142Z,0
2016-03-19T02:59:27.503Z,0
2016-03-19T02:59:40.831Z,0
2016-03-19T02:59:54.394Z,0
2016-03-19T03:00:07.784Z,0
2016-03-19T03:00:21.425Z,0
2016-03-19T03:00:35.523Z,0
2016-03-19T03:00:48.929Z,0
2016-03-19T03:01:02.429Z,0
2016-03-19T03:01:16.476Z,0
2016-03-19T03:01:29.806Z,0
2016-03-19T03:01:45.025Z,0
2016-03-19T03:01:58.384Z,0
2016-03-19T03:02:11.712Z,0
2016-03-19T03:02:25.778Z,0
2016-03-19T03:02:39.215Z,0
2016-03-19T03:02:52.746Z,0
2016-03-19T03:03:06.293Z,0
2016-03-19T03:03:19.793Z,0
2016-03-19T03:03:33.108Z,0
2016-03-19T03:03:46.561Z,0
2016-03-19T03:04:51.079Z,0
2016-03-19T03:05:04.501Z,0
2016-03-19T03:05:17.876Z,0
2016-03-19T03:05:31.411Z,0
2016-03-19T03:17:38.411Z,0
2016-03-19T03:17:51.849Z,0
2016-03-19T03:18:05.177Z,0
2016-03-19T03:18:18.724Z,0
2016-03-19T03:18:32.210Z,0
2016-03-19T03:18:45.554Z,0
2016-03-19T03:18:59.507Z,0
2016-03-19T03:19:13.429Z,0
2016-03-19T03:19:26.995Z,0
2016-03-19T03:19:40.636Z,0
2016-03-19T03:19:54.089Z,0
2016-03-19T03:20:07.620Z,0
2016-03-19T03:20:20.980Z,0
2016-03-19T03:20:34.513Z,0
2016-03-19T03:20:47.982Z,0
2016-03-19T03:21:01.341Z,0
2016-03-19T03:21:14.669Z,0
2016-03-19T03:21:28.156Z,0
2016-03-19T03:21:41.531Z,0
2016-03-19T03:21:54.859Z,0
2016-03-19T03:22:08.234Z,0
2016-03-19T03:22:21.734Z,0
2016-03-19T03:22:35.143Z,0
2016-03-19T03:22:48.534Z,0
2016-03-19T03:23:02.034Z,0
2016-03-19T03:23:15.518Z,0
2016-03-19T03:23:29.162Z,0
2016-03-19T03:23:42.646Z,0
2016-03-19T03:24:55.462Z,0
2016-03-19T03:25:08.774Z,0
2016-03-19T03:25:22.274Z,0
2016-03-19T03:25:35.589Z,0
2016-03-19T03:25:49.104Z,0
2016-03-19T03:26:02.510Z,0
2016-03-19T03:26:15.807Z,0
2016-03-19T03:26:29.326Z,0
2016-03-19T03:26:42.842Z,0
2016-03-19T03:26:56.185Z,0
2016-03-19T03:27:09.763Z,0
2016-03-19T03:27:23.310Z,0
2016-03-19T03:27:36.657Z,0
2016-03-19T03:27:50.579Z,0
2016-03-19T03:28:04.079Z,0
2016-03-19T03:28:17.704Z,0
2016-03-19T03:28:31.581Z,0
2016-03-19T03:28:44.956Z,0
2016-03-19T03:28:58.300Z,0
2016-03-19T03:29:11.940Z,0
2016-03-19T03:29:25.334Z,0
2016-03-19T03:29:38.678Z,0
2016-03-19T03:29:52.131Z,0
2016-03-19T03:30:05.615Z,0
2016-03-19T03:30:18.959Z,0
2016-03-19T03:30:32.431Z,0
2016-03-19T03:30:46.681Z,0
2016-03-19T03:31:00.024Z,0
2016-03-19T03:31:13.462Z,0
2016-03-19T03:31:26.824Z,0
2016-03-19T03:31:40.809Z,0
2016-03-19T03:31:54.371Z,0
2016-03-19T03:32:07.777Z,0
2016-03-19T03:32:21.215Z,0
2016-03-19T03:32:35.530Z,0
2016-03-19T03:32:48.921Z,0
2016-03-19T03:33:02.343Z,0
2016-03-19T03:33:15.843Z,0
2016-03-19T03:33:29.236Z,0
2016-03-19T03:33:42.611Z,0
2016-03-19T03:33:56.111Z,0
2016-03-19T03:34:09.532Z,0
2016-03-19T03:34:22.923Z,0
2016-03-19T03:34:36.364Z,0
2016-03-19T03:34:49.832Z,0
2016-03-19T03:35:03.410Z,0
2016-03-19T03:35:16.739Z,0
2016-03-19T03:35:30.256Z,0
2016-03-19T03:35:43.741Z,0
2016-03-19T03:35:57.069Z,0
2016-03-19T03:36:10.678Z,0
2016-03-19T03:36:24.119Z,0
2016-03-19T03:48:28.260Z,0
2016-03-19T03:48:41.807Z,0
2016-03-19T03:48:55.119Z,0
2016-03-19T03:49:08.526Z,0
2016-03-19T03:49:21.994Z,0
2016-03-19T03:49:35.403Z,0
2016-03-19T03:49:48.746Z,0
2016-03-19T03:50:02.262Z,0
2016-03-19T03:50:15.762Z,0
2016-03-19T03:50:29.188Z,0
2016-03-19T03:50:42.735Z,0
2016-03-19T03:50:56.188Z,0
2016-03-19T03:51:09.547Z,0
2016-03-19T03:51:23.094Z,0
2016-03-19T03:51:36.487Z,0
2016-03-19T03:51:49.815Z,0
2016-03-19T03:52:03.330Z,0
2016-03-19T03:52:16.674Z,0
2016-03-19T03:52:29.974Z,0
2016-03-19T03:52:43.599Z,0
2016-03-19T03:52:56.974Z,0
2016-03-19T03:53:10.365Z,0
2016-03-19T03:53:23.805Z,0
2016-03-19T03:53:37.305Z,0
2016-03-19T03:53:50.649Z,0
2016-03-19T03:54:04.165Z,0
2016-03-19T03:54:17.508Z,0
2016-03-19T03:54:30.870Z,0
2016-03-19T03:55:35.482Z,0
2016-03-19T03:55:49.435Z,0
2016-03-19T03:56:03.388Z,0
2016-03-19T03:56:16.857Z,0
2016-03-19T03:56:30.281Z,0
2016-03-19T03:56:43.593Z,0
2016-03-19T03:56:57.125Z,0
2016-03-19T03:57:10.578Z,0
2016-03-19T03:57:25.347Z,0
2016-03-19T03:57:38.847Z,0
2016-03-19T03:57:52.238Z,0
2016-03-19T03:58:05.691Z,0
2016-03-19T03:58:19.176Z,0
2016-03-19T03:58:32.599Z,0
2016-03-19T03:58:45.959Z,0
2016-03-19T03:58:59.474Z,0
2016-03-19T03:59:12.865Z,0
2016-03-19T03:59:26.180Z,0
2016-03-19T03:59:40.133Z,0
2016-03-19T03:59:53.633Z,0
2016-03-19T04:00:06.992Z,0
2016-03-19T04:00:20.445Z,0
2016-03-19T04:00:33.933Z,0
2016-03-19T04:00:47.370Z,0
2016-03-19T04:01:00.745Z,0
2016-03-19T04:01:14.073Z,0
2016-03-19T04:01:27.592Z,0
2016-03-19T04:01:42.389Z,0
2016-03-19T04:01:55.779Z,0
2016-03-19T04:02:09.248Z,0
2016-03-19T04:02:22.732Z,0
2016-03-19T04:02:36.142Z,0
2016-03-19T04:02:49.579Z,0
2016-03-19T04:03:03.251Z,0
2016-03-19T04:03:16.564Z,0
2016-03-19T04:03:30.003Z,0
2016-03-19T04:03:43.425Z,0
2016-03-19T04:03:57.003Z,0
2016-03-19T04:04:10.300Z,0
2016-03-19T04:04:23.675Z,0
2016-03-19T04:04:37.226Z,0
2016-03-19T04:04:50.585Z,0
2016-03-19T04:05:03.960Z,0
2016-03-19T04:05:17.476Z,0
2016-03-19T04:05:30.884Z,0
2016-03-19T04:05:44.306Z,0
2016-03-19T04:05:57.806Z,0
2016-03-19T04:06:11.243Z,0
2016-03-19T04:06:24.605Z,0
2016-03-19T04:06:38.152Z,0
2016-03-19T04:06:51.495Z,0
2016-03-19T04:07:04.902Z,0
2016-03-19T04:19:13.060Z,0
2016-03-19T04:19:26.594Z,0
2016-03-19T04:19:39.922Z,0
2016-03-19T04:19:53.469Z,0
2016-03-19T04:20:06.969Z,0
2016-03-19T04:20:20.360Z,0
2016-03-19T04:20:33.738Z,0
2016-03-19T04:20:47.284Z,0
2016-03-19T04:21:00.784Z,0
2016-03-19T04:21:14.128Z,0
2016-03-19T04:21:27.505Z,0
2016-03-19T04:21:40.990Z,0
2016-03-19T04:21:54.411Z,0
2016-03-19T04:22:07.740Z,0
2016-03-19T04:22:21.271Z,0
2016-03-19T04:22:34.710Z,0
2016-03-19T04:22:48.038Z,0
2016-03-19T04:23:01.554Z,0
2016-03-19T04:23:15.038Z,0
2016-03-19T04:23:28.385Z,0
2016-03-19T04:23:41.838Z,0
2016-03-19T04:23:55.182Z,0
2016-03-19T04:24:08.698Z,0
2016-03-19T04:24:22.885Z,0
2016-03-19T04:24:36.232Z,0
2016-03-19T04:24:49.732Z,0
2016-03-19T04:25:03.169Z,0
2016-03-19T04:25:16.498Z,0
2016-03-19T04:26:20.015Z,0
2016-03-19T04:26:33.457Z,0
2016-03-19T04:26:46.816Z,0
2016-03-19T04:27:00.222Z,0
2016-03-19T04:27:13.691Z,0
2016-03-19T04:27:27.099Z,0
2016-03-19T04:27:40.599Z,0
2016-03-19T04:27:54.052Z,0
2016-03-19T04:28:07.334Z,0
2016-03-19T04:28:20.834Z,0
2016-03-19T04:28:34.274Z,0
2016-03-19T04:28:47.587Z,0
2016-03-19T04:29:01.071Z,0
2016-03-19T04:29:14.602Z,0
2016-03-19T04:29:27.917Z,0
2016-03-19T04:29:41.417Z,0
2016-03-19T04:29:54.932Z,0
2016-03-19T04:30:08.214Z,0
2016-03-19T04:30:21.729Z,0
2016-03-19T04:30:35.154Z,0
2016-03-19T04:30:48.498Z,0
2016-03-19T04:31:02.045Z,0
2016-03-19T04:31:15.482Z,0
2016-03-19T04:31:28.845Z,0
2016-03-19T04:31:43.017Z,0
2016-03-19T04:31:56.501Z,0
2016-03-19T04:32:09.892Z,0
2016-03-19T04:32:23.313Z,0
2016-03-19T04:32:36.862Z,0
2016-03-19T04:32:50.190Z,0
2016-03-19T04:33:03.659Z,0
2016-03-19T04:33:17.065Z,0
2016-03-19T04:33:30.350Z,0
2016-03-19T04:33:43.850Z,0
2016-03-19T04:33:57.725Z,0
2016-03-19T04:34:11.068Z,0
2016-03-19T04:34:24.883Z,0
2016-03-19T04:34:38.399Z,0
2016-03-19T04:34:51.742Z,0
2016-03-19T04:35:05.195Z,0
2016-03-19T04:35:18.992Z,0
2016-03-19T04:35:32.371Z,0
2016-03-19T04:35:45.871Z,0
2016-03-19T04:35:59.262Z,0
2016-03-19T04:36:12.715Z,0
2016-03-19T04:36:26.530Z,0
2016-03-19T04:36:39.842Z,0
2016-03-19T04:36:53.311Z,0
2016-03-19T04:37:06.826Z,0
2016-03-19T04:37:20.139Z,0
2016-03-19T04:37:33.595Z,0
2016-03-19T04:37:47.111Z,0
2016-03-19T04:38:00.533Z,0
2016-03-19T04:50:08.362Z,15
2016-03-19T04:50:21.737Z,15
2016-03-19T04:50:35.239Z,15
2016-03-19T04:50:48.786Z,15
2016-03-19T04:51:02.146Z,15
2016-03-19T04:51:15.568Z,15
2016-03-19T04:51:29.102Z,15
2016-03-19T04:51:42.508Z,15
2016-03-19T04:51:55.930Z,15
2016-03-19T04:52:09.446Z,15
2016-03-19T04:52:22.883Z,15
2016-03-19T04:52:36.260Z,15
2016-03-19T04:52:49.807Z,15
2016-03-19T04:53:03.182Z,15
2016-03-19T04:53:16.744Z,15
2016-03-19T04:53:30.107Z,15
2016-03-19T04:53:43.654Z,15
2016-03-19T04:53:57.185Z,15
2016-03-19T04:54:11.044Z,15
2016-03-19T04:54:24.388Z,15
2016-03-19T04:54:38.016Z,15
2016-03-19T04:54:51.485Z,15
2016-03-19T04:55:05.329Z,15
2016-03-19T04:55:18.907Z,15
2016-03-19T04:55:32.377Z,0
2016-03-19T04:55:45.768Z,0
2016-03-19T04:55:59.252Z,0
2016-03-19T04:56:12.690Z,0
2016-03-19T04:56:26.005Z,8
2016-03-19T04:57:31.071Z,8
2016-03-19T04:57:44.508Z,8
2016-03-19T04:57:57.821Z,8
2016-03-19T04:58:11.368Z,8
2016-03-19T04:58:24.807Z,8
2016-03-19T04:58:38.167Z,8
2016-03-19T04:58:51.651Z,8
2016-03-19T04:59:05.042Z,8
2016-03-19T04:59:18.417Z,8
2016-03-19T04:59:32.029Z,26
2016-03-19T04:59:45.420Z,26
2016-03-19T04:59:58.967Z,26
2016-03-19T05:00:12.451Z,26
2016-03-19T05:00:25.829Z,26
2016-03-19T05:00:39.470Z,26
2016-03-19T05:00:52.923Z,26
2016-03-19T05:01:06.282Z,26
2016-03-19T05:01:19.751Z,26
2016-03-19T05:01:33.332Z,26
2016-03-19T05:01:48.207Z,26
2016-03-19T05:02:01.691Z,26
2016-03-19T05:02:16.926Z,26
2016-03-19T05:02:30.366Z,26
2016-03-19T05:02:43.804Z,26
2016-03-19T05:02:57.257Z,26
2016-03-19T05:03:10.835Z,26
2016-03-19T05:03:24.194Z,26
2016-03-19T05:03:37.618Z,26
2016-03-19T05:03:51.212Z,26
2016-03-19T05:04:04.649Z,26
2016-03-19T05:04:18.056Z,43
2016-03-19T05:04:31.558Z,43
2016-03-19T05:04:45.011Z,43
2016-03-19T05:04:58.448Z,17
2016-03-19T05:05:12.042Z,17
2016-03-19T05:05:25.530Z,17
2016-03-19T05:05:38.952Z,17
2016-03-19T05:05:52.312Z,17
2016-03-19T05:06:05.843Z,35
2016-03-19T05:06:19.296Z,35
2016-03-19T05:06:32.673Z,35
2016-03-19T05:06:46.157Z,35
2016-03-19T05:06:59.720Z,35
2016-03-19T05:07:13.079Z,35
2016-03-19T05:07:26.566Z,53
2016-03-19T05:07:40.128Z,53
2016-03-19T05:07:53.503Z,53
2016-03-19T05:08:07.019Z,53
2016-03-19T05:08:20.503Z,53
2016-03-19T05:08:34.037Z,43
2016-03-19T05:08:47.491Z,43
2016-03-19T05:21:00.117Z,43
2016-03-19T05:21:13.664Z,120
2016-03-19T05:21:27.213Z,139
2016-03-19T05:21:40.557Z,111
2016-03-19T05:21:53.979Z,129
2016-03-19T05:22:07.572Z,129
2016-03-19T05:22:20.932Z,147
2016-03-19T05:22:34.497Z,119
2016-03-19T05:22:48.029Z,119
2016-03-19T05:23:01.513Z,137
2016-03-19T05:23:15.060Z,137
2016-03-19T05:23:28.452Z,156
2016-03-19T05:23:41.906Z,146
2016-03-19T05:23:55.937Z,164
2016-03-19T05:24:09.359Z,136
2016-03-19T05:24:22.781Z,154
2016-03-19T05:24:37.128Z,172
2016-03-19T05:24:50.628Z,162
2016-03-19T05:25:04.066Z,181
2016-03-19T05:25:17.628Z,181
2016-03-19T05:25:31.005Z,171
2016-03-19T05:25:44.490Z,189
2016-03-19T05:25:58.537Z,179
2016-03-19T05:26:11.927Z,197
2016-03-19T05:26:25.414Z,197
2016-03-19T05:26:39.007Z,187
2016-03-19T05:26:52.445Z,206
2016-03-19T05:27:06.023Z,224
2016-03-19T05:27:19.632Z,224
2016-03-19T05:28:30.982Z,223
2016-03-19T05:28:44.357Z,223
2016-03-19T05:28:57.904Z,241
2016-03-19T05:29:11.341Z,241
2016-03-19T05:29:24.701Z,241
2016-03-19T05:29:38.141Z,241
2016-03-19T05:29:51.673Z,241
2016-03-19T05:30:05.141Z,259
2016-03-19T05:30:18.501Z,231
2016-03-19T05:30:32.112Z,231
2016-03-19T05:30:45.675Z,231
2016-03-19T05:30:59.034Z,249
2016-03-19T05:31:12.550Z,249
2016-03-19T05:31:26.021Z,268
2016-03-19T05:31:40.474Z,239
2016-03-19T05:31:54.006Z,258
2016-03-19T05:32:07.490Z,258
2016-03-19T05:32:20.865Z,248
2016-03-19T05:32:34.415Z,248
2016-03-19T05:32:47.852Z,266
2016-03-19T05:33:01.227Z,256
2016-03-19T05:33:14.759Z,256
2016-03-19T05:33:28.214Z,274
2016-03-19T05:33:41.589Z,274
2016-03-19T05:33:55.073Z,265
2016-03-19T05:34:08.604Z,265
2016-03-19T05:34:21.948Z,265
2016-03-19T05:34:35.452Z,283
2016-03-19T05:34:48.999Z,283
2016-03-19T05:35:02.390Z,301
2016-03-19T05:35:16.312Z,273
2016-03-19T05:35:29.689Z,291
2016-03-19T05:35:43.610Z,291
2016-03-19T05:35:57.157Z,310
2016-03-19T05:36:10.532Z,310
2016-03-19T05:36:24.064Z,300
2016-03-19T05:36:37.738Z,318
2016-03-19T05:36:51.113Z,308